createdAt,value
2018-04-07T00:00:14.910Z,2.70
2018-04-07T00:01:14.817Z,2.30
2018-04-07T00:02:14.703Z,2.90
2018-04-07T00:03:14.495Z,2.70
2018-04-07T00:04:14.390Z,2.90
2018-04-07T00:05:15.350Z,2.60
2018-04-07T00:06:15.221Z,2.50
2018-04-07T00:07:15.374Z,2.50
2018-04-07T00:08:15.655Z,2.70
2018-04-07T00:09:14.932Z,2.50
2018-04-07T00:10:15.090Z,2.30
2018-04-07T00:11:57.322Z,2.50
2018-04-07T00:12:57.695Z,2.20
2018-04-07T00:13:57.666Z,2.40
2018-04-07T00:14:57.364Z,2.70
2018-04-07T00:15:57.994Z,2.20
2018-04-07T00:16:57.944Z,2.50
2018-04-07T00:17:58.122Z,2.60
2018-04-07T00:18:57.757Z,2.60
2018-04-07T00:19:58.001Z,2.80
2018-04-07T00:20:57.616Z,2.80
2018-04-07T00:21:57.522Z,2.80
2018-04-07T00:22:57.689Z,2.60
2018-04-07T00:23:57.376Z,2.50
2018-04-07T00:24:57.198Z,2.30
2018-04-07T00:25:58.143Z,2.30
2018-04-07T00:26:57.722Z,2.90
2018-04-07T00:27:57.597Z,2.30
2018-04-07T00:28:57.543Z,2.50
2018-04-07T00:29:57.217Z,2.40
2018-04-07T00:30:58.087Z,2.30
2018-04-07T00:31:58.080Z,2.30
2018-04-07T00:32:57.444Z,2.80
2018-04-07T00:33:57.331Z,2.70
2018-04-07T00:34:57.940Z,2.80
2018-04-07T00:35:57.657Z,2.30
2018-04-07T00:36:57.327Z,2.10
2018-04-07T00:37:57.795Z,2.60
2018-04-07T00:38:57.501Z,2.80
2018-04-07T00:39:57.542Z,2.20
2018-04-07T00:40:57.412Z,2.90
2018-04-07T00:41:57.426Z,2.60
2018-04-07T00:43:19.010Z,2.90
2018-04-07T00:44:18.828Z,2.30
2018-04-07T00:45:19.485Z,2.40
2018-04-07T00:46:19.286Z,2.60
2018-04-07T00:47:19.286Z,2.50
2018-04-07T00:48:39.099Z,2.70
2018-04-07T00:49:39.866Z,2.30
2018-04-07T00:50:39.380Z,2.40
2018-04-07T00:51:40.111Z,2.50
2018-04-07T00:52:39.963Z,2.40
2018-04-07T00:53:39.921Z,2.40
2018-04-07T00:54:39.700Z,2.60
2018-04-07T00:55:39.678Z,2.50
2018-04-07T00:56:39.629Z,2.30
2018-04-07T00:57:39.672Z,2.50
2018-04-07T00:59:00.426Z,2.40
2018-04-07T01:00:22.205Z,2.40
2018-04-07T01:01:23.100Z,2.40
2018-04-07T01:03:05.277Z,2.60
2018-04-07T01:04:05.909Z,2.60
2018-04-07T01:05:05.538Z,2.50
2018-04-07T01:06:06.010Z,2.50
2018-04-07T01:07:27.490Z,2.50
2018-04-07T01:08:28.083Z,2.50
2018-04-07T01:09:27.770Z,2.30
2018-04-07T01:10:48.272Z,2.50
2018-04-07T01:11:48.818Z,2.40
2018-04-07T01:13:30.371Z,2.10
2018-04-07T01:14:31.136Z,2.60
2018-04-07T01:15:30.646Z,2.40
2018-04-07T01:16:30.346Z,3.20
2018-04-07T01:17:30.861Z,2.40
2018-04-07T01:18:32.335Z,2.30
2018-04-07T01:19:34.468Z,2.30
2018-04-07T01:20:30.597Z,2.50
2018-04-07T01:21:35.242Z,2.30
2018-04-07T01:23:00.445Z,2.80
2018-04-07T01:24:00.336Z,2.40
2018-04-07T01:24:59.160Z,2.40
2018-04-07T01:26:02.168Z,2.20
2018-04-07T01:27:04.117Z,2.30
2018-04-07T01:28:23.501Z,2.40
2018-04-07T01:29:24.952Z,2.40
2018-04-07T01:30:23.580Z,2.60
2018-04-07T01:31:23.648Z,2.40
2018-04-07T01:32:24.900Z,2.40
2018-04-07T01:33:27.971Z,2.10
2018-04-07T01:34:26.814Z,2.50
2018-04-07T01:35:24.396Z,2.60
2018-04-07T01:36:24.892Z,2.70
2018-04-07T01:37:25.748Z,2.50
2018-04-07T01:38:24.710Z,2.60
2018-04-07T01:39:25.021Z,2.70
2018-04-07T01:40:26.970Z,2.40
2018-04-07T01:41:25.859Z,2.40
2018-04-07T01:42:52.711Z,2.50
2018-04-07T01:43:55.828Z,2.20
2018-04-07T01:44:58.190Z,2.60
2018-04-07T01:45:52.872Z,2.40
2018-04-07T01:46:53.597Z,2.40
2018-04-07T01:47:53.408Z,2.40
2018-04-07T01:48:53.476Z,2.60
2018-04-07T01:49:55.250Z,2.70
2018-04-07T01:50:53.111Z,2.40
2018-04-07T01:52:17.383Z,2.30
2018-04-07T01:53:15.395Z,2.50
2018-04-07T01:54:15.148Z,2.30
2018-04-07T01:55:14.702Z,2.90
2018-04-07T01:56:15.634Z,2.60
2018-04-07T01:57:15.624Z,2.50
2018-04-07T01:58:15.599Z,2.60
2018-04-07T01:59:15.271Z,2.40
2018-04-07T02:00:17.564Z,2.70
2018-04-07T02:01:45.405Z,2.70
2018-04-07T02:02:38.457Z,2.60
2018-04-07T02:03:38.070Z,2.50
2018-04-07T02:04:44.094Z,2.20
2018-04-07T02:05:40.314Z,2.30
2018-04-07T02:06:38.131Z,2.40
2018-04-07T02:07:40.121Z,2.40
2018-04-07T02:08:39.161Z,2.40
2018-04-07T02:09:41.570Z,2.40
2018-04-07T02:10:41.705Z,2.50
2018-04-07T02:11:41.217Z,2.10
2018-04-07T02:12:38.227Z,2.60
2018-04-07T02:14:00.780Z,2.70
2018-04-07T02:15:22.035Z,2.30
2018-04-07T02:16:23.104Z,2.20
2018-04-07T02:17:22.654Z,2.30
2018-04-07T02:18:22.452Z,2.50
2018-04-07T02:19:22.096Z,2.40
2018-04-07T02:20:22.651Z,2.30
2018-04-07T02:21:22.531Z,2.70
2018-04-07T02:22:22.125Z,2.60
2018-04-07T02:23:23.238Z,3.10
2018-04-07T02:24:22.835Z,3.00
2018-04-07T02:25:22.788Z,3.50
2018-04-07T02:26:22.271Z,2.70
2018-04-07T02:27:22.727Z,2.40
2018-04-07T02:28:23.456Z,2.70
2018-04-07T02:29:22.086Z,2.80
2018-04-07T02:30:23.356Z,2.30
2018-04-07T02:31:23.916Z,2.30
2018-04-07T02:32:23.438Z,2.70
2018-04-07T02:33:23.207Z,2.40
2018-04-07T02:34:22.642Z,2.60
2018-04-07T02:35:22.312Z,2.80
2018-04-07T02:36:55.536Z,2.80
2018-04-07T02:38:12.740Z,2.20
2018-04-07T02:38:50.917Z,2.20
2018-04-07T02:40:20.063Z,2.60
2018-04-07T02:41:18.326Z,2.70
2018-04-07T02:42:19.805Z,3.20
2018-04-07T02:43:24.053Z,2.30
2018-04-07T02:44:18.058Z,2.40
2018-04-07T02:45:17.905Z,2.70
2018-04-07T02:46:19.931Z,2.40
2018-04-07T02:47:21.189Z,2.70
2018-04-07T02:48:22.188Z,2.50
2018-04-07T02:49:20.825Z,2.80
2018-04-07T03:00:01.511Z,2.50
2018-04-07T03:01:02.012Z,2.50
2018-04-07T03:02:55.725Z,2.40
2018-04-07T03:05:54.325Z,3.00
2018-04-07T03:07:22.899Z,2.40
2018-04-07T03:21:55.805Z,0.00
2018-04-07T03:23:30.299Z,2.40
2018-04-07T03:24:30.954Z,2.70
2018-04-07T03:25:28.664Z,2.60
2018-04-07T03:29:24.438Z,2.60
2018-04-07T03:30:54.204Z,2.60
2018-04-07T03:33:53.801Z,2.50
2018-04-07T03:34:56.004Z,2.90
2018-04-07T03:36:22.284Z,2.80
2018-04-07T03:37:22.676Z,2.50
2018-04-07T03:51:54.202Z,2.30
2018-04-07T03:52:55.231Z,2.60
2018-04-07T03:55:32.567Z,3.10
2018-04-07T03:56:33.284Z,2.50
2018-04-07T03:57:54.287Z,2.70
2018-04-07T03:59:14.904Z,2.40
2018-04-07T04:00:15.559Z,3.10
2018-04-07T04:01:15.810Z,2.90
2018-04-07T04:02:36.180Z,3.30
2018-04-07T04:03:36.851Z,2.90
2018-04-07T04:04:37.356Z,2.70
2018-04-07T04:05:36.630Z,3.10
2018-04-07T04:06:37.433Z,2.30
2018-04-07T04:07:37.151Z,2.90
2018-04-07T04:08:36.903Z,3.30
2018-04-07T04:09:36.199Z,2.80
2018-04-07T04:10:37.099Z,2.60
2018-04-07T04:11:36.807Z,2.50
2018-04-07T04:12:37.194Z,2.80
2018-04-07T04:13:36.973Z,2.80
2018-04-07T04:14:36.228Z,2.80
2018-04-07T04:16:18.621Z,2.80
2018-04-07T04:17:19.075Z,3.00
2018-04-07T04:18:19.446Z,3.20
2018-04-07T04:19:19.097Z,2.80
2018-04-07T04:20:18.466Z,3.10
2018-04-07T04:21:19.022Z,2.70
2018-04-07T04:22:18.494Z,2.40
2018-04-07T04:23:18.790Z,2.90
2018-04-07T04:24:19.195Z,2.80
2018-04-07T04:25:19.033Z,2.80
2018-04-07T04:26:19.369Z,2.70
2018-04-07T04:27:18.722Z,3.00
2018-04-07T04:28:19.477Z,2.80
2018-04-07T04:29:19.186Z,2.90
2018-04-07T04:30:18.541Z,2.80
2018-04-07T04:31:18.750Z,2.80
2018-04-07T04:32:42.140Z,2.80
2018-04-07T04:33:43.034Z,2.70
2018-04-07T04:34:42.469Z,2.80
2018-04-07T04:35:43.208Z,3.00
2018-04-07T04:37:02.834Z,3.20
2018-04-07T04:38:03.533Z,2.70
2018-04-07T04:39:03.452Z,2.90
2018-04-07T04:40:03.238Z,2.90
2018-04-07T04:41:04.101Z,2.70
2018-04-07T04:42:03.967Z,2.90
2018-04-07T04:43:03.639Z,3.30
2018-04-07T04:44:03.087Z,3.30
2018-04-07T04:45:03.545Z,3.20
2018-04-07T04:46:03.155Z,3.20
2018-04-07T04:47:03.835Z,3.00
2018-04-07T04:48:03.516Z,3.30
2018-04-07T04:49:02.921Z,2.80
2018-04-07T04:50:03.427Z,2.60
2018-04-07T04:51:03.708Z,2.50
2018-04-07T04:52:03.329Z,2.80
2018-04-07T04:53:03.684Z,3.20
2018-04-07T04:54:03.349Z,3.00
2018-04-07T04:55:04.368Z,3.40
2018-04-07T04:56:28.139Z,3.00
2018-04-07T04:57:27.779Z,3.20
2018-04-07T04:58:27.624Z,2.80
2018-04-07T05:00:45.587Z,2.80
2018-04-07T05:01:46.011Z,3.50
2018-04-07T05:02:45.742Z,2.90
2018-04-07T05:03:46.425Z,2.80
2018-04-07T05:05:07.193Z,2.70
2018-04-07T05:06:08.034Z,3.10
2018-04-07T05:07:07.616Z,3.10
2018-04-07T05:08:08.413Z,2.90
2018-04-07T05:09:08.584Z,3.10
2018-04-07T05:52:33.216Z,3.50
2018-04-07T05:53:33.761Z,3.40
2018-04-07T05:54:33.457Z,3.30
2018-04-07T05:55:34.128Z,3.50
2018-04-07T05:56:33.677Z,3.20
2018-04-07T05:58:21.754Z,3.50
2018-04-07T05:59:50.883Z,3.10
2018-04-07T06:02:11.245Z,3.60
2018-04-07T06:03:53.540Z,3.70
2018-04-07T06:05:13.520Z,3.50
2018-04-07T06:06:57.426Z,3.20
2018-04-07T06:07:58.867Z,3.30
2018-04-07T06:10:06.757Z,3.40
2018-04-07T06:11:35.080Z,3.50
2018-04-07T06:12:38.325Z,3.40
2018-04-07T06:13:36.272Z,3.80
2018-04-07T06:15:34.330Z,3.40
2018-04-07T06:18:19.277Z,3.80
2018-04-07T06:19:20.147Z,3.60
2018-04-07T06:20:20.128Z,3.90
2018-04-07T06:21:20.971Z,3.90
2018-04-07T06:22:20.872Z,3.40
2018-04-07T06:23:40.845Z,3.20
2018-04-07T06:24:41.115Z,3.50
2018-04-07T06:25:41.915Z,3.60
2018-04-07T06:26:41.712Z,3.70
2018-04-07T06:27:41.680Z,3.90
2018-04-07T06:28:43.178Z,3.80
2018-04-07T06:29:45.188Z,3.70
2018-04-07T06:30:41.225Z,3.80
2018-04-07T06:31:43.310Z,3.40
2018-04-07T06:32:41.749Z,3.90
2018-04-07T06:33:41.871Z,3.60
2018-04-07T06:34:44.741Z,3.80
2018-04-07T06:35:41.290Z,3.90
2018-04-07T06:36:42.400Z,3.90
2018-04-07T06:37:41.987Z,3.90
2018-04-07T06:38:41.786Z,3.80
2018-04-07T06:39:40.730Z,3.70
2018-04-07T06:40:41.773Z,3.50
2018-04-07T06:41:41.276Z,4.40
2018-04-07T06:42:42.159Z,3.80
2018-04-07T06:43:41.103Z,3.90
2018-04-07T06:44:40.770Z,4.40
2018-04-07T06:45:41.809Z,3.60
2018-04-07T06:46:42.279Z,3.80
2018-04-07T06:47:41.973Z,4.00
2018-04-07T06:48:41.151Z,4.20
2018-04-07T06:50:03.182Z,4.20
2018-04-07T06:51:04.539Z,3.70
2018-04-07T06:52:03.255Z,4.00
2018-04-07T06:53:02.970Z,3.70
2018-04-07T06:54:02.884Z,3.30
2018-04-07T06:55:02.569Z,4.00
2018-04-07T06:56:03.536Z,3.70
2018-04-07T06:57:06.062Z,3.60
2018-04-07T06:58:04.440Z,4.20
2018-04-07T06:59:25.060Z,3.80
2018-04-07T07:00:26.114Z,4.00
2018-04-07T07:01:26.254Z,4.00
2018-04-07T07:02:26.407Z,4.10
2018-04-07T07:03:25.598Z,3.90
2018-04-07T07:04:26.242Z,4.30
2018-04-07T07:05:27.121Z,3.80
2018-04-07T07:06:28.360Z,4.30
2018-04-07T07:08:19.991Z,4.30
2018-04-07T07:09:17.920Z,4.10
2018-04-07T07:10:41.403Z,4.70
2018-04-07T07:11:42.052Z,4.40
2018-04-07T07:12:45.287Z,4.10
2018-04-07T07:13:43.459Z,4.50
2018-04-07T07:14:43.319Z,3.90
2018-04-07T07:15:41.249Z,4.20
2018-04-07T07:17:07.690Z,3.90
2018-04-07T07:18:05.309Z,4.30
2018-04-07T07:19:27.814Z,4.10
2018-04-07T07:20:28.918Z,4.90
2018-04-07T07:21:32.552Z,4.40
2018-04-07T07:22:38.516Z,4.50
2018-04-07T07:23:30.423Z,4.80
2018-04-07T07:24:29.899Z,4.60
2018-04-07T07:25:29.831Z,4.40
2018-04-07T07:26:28.207Z,4.00
2018-04-07T07:27:28.337Z,4.40
2018-04-07T07:28:28.641Z,4.40
2018-04-07T07:29:28.754Z,4.50
2018-04-07T07:30:26.650Z,4.40
2018-04-07T07:31:52.253Z,4.40
2018-04-07T07:32:54.074Z,4.20
2018-04-07T07:33:52.171Z,4.70
2018-04-07T07:34:52.930Z,5.10
2018-04-07T07:35:51.929Z,5.30
2018-04-07T07:37:21.080Z,4.50
2018-04-07T07:38:19.689Z,4.50
2018-04-07T07:39:18.991Z,4.80
2018-04-07T07:41:01.552Z,5.00
2018-04-07T07:42:03.629Z,5.00
2018-04-07T07:43:02.911Z,4.60
2018-04-07T07:44:01.628Z,4.70
2018-04-07T07:45:04.094Z,5.30
2018-04-07T07:46:03.664Z,5.20
2018-04-07T07:47:23.763Z,4.90
2018-04-07T07:48:24.362Z,4.80
2018-04-07T07:49:25.298Z,4.50
2018-04-07T07:50:26.069Z,4.60
2018-04-07T07:51:24.247Z,5.00
2018-04-07T07:52:24.419Z,5.60
2018-04-07T07:53:24.926Z,4.90
2018-04-07T07:54:24.372Z,5.00
2018-04-07T07:56:21.480Z,4.90
2018-04-07T07:57:19.513Z,4.80
2018-04-07T07:58:45.690Z,5.00
2018-04-07T08:00:03.095Z,5.20
2018-04-07T08:01:02.969Z,5.10
2018-04-07T08:02:03.035Z,4.70
2018-04-07T08:03:05.038Z,5.20
2018-04-07T08:04:03.093Z,4.70
2018-04-07T08:05:07.052Z,4.90
2018-04-07T08:07:12.046Z,5.70
2018-04-07T08:08:10.602Z,5.70
2018-04-07T08:09:08.679Z,5.20
2018-04-07T08:11:32.143Z,5.20
2018-04-07T08:12:31.980Z,5.20
2018-04-07T08:13:59.737Z,5.10
2018-04-07T08:16:45.715Z,5.10
2018-04-07T08:18:07.144Z,5.40
2018-04-07T08:19:08.201Z,5.00
2018-04-07T08:20:31.514Z,5.20
2018-04-07T08:21:31.274Z,5.50
2018-04-07T08:22:31.632Z,5.80
2018-04-07T08:23:31.767Z,5.60
2018-04-07T08:25:16.378Z,5.50
2018-04-07T08:26:47.033Z,5.50
2018-04-07T08:27:42.293Z,6.10
2018-04-07T08:28:46.176Z,5.90
2018-04-07T08:29:42.815Z,5.20
2018-04-07T08:30:42.838Z,5.30
2018-04-07T08:31:41.776Z,5.30
2018-04-07T08:32:42.839Z,5.70
2018-04-07T08:33:41.635Z,5.90
2018-04-07T08:34:42.959Z,5.70
2018-04-07T08:36:13.056Z,6.00
2018-04-07T08:37:14.747Z,5.20
2018-04-07T08:38:13.566Z,5.70
2018-04-07T08:40:11.686Z,5.80
2018-04-07T08:41:11.570Z,5.90
2018-04-07T08:42:13.154Z,6.00
2018-04-07T08:43:14.381Z,5.90
2018-04-07T08:44:48.761Z,5.90
2018-04-07T08:46:13.126Z,5.60
2018-04-07T08:47:13.543Z,5.70
2018-04-07T08:48:13.298Z,6.40
2018-04-07T08:49:13.548Z,6.10
2018-04-07T08:50:14.079Z,5.30
2018-04-07T08:51:36.091Z,5.90
2018-04-07T08:52:57.040Z,5.60
2018-04-07T08:53:58.454Z,9.50
2018-04-07T08:54:57.892Z,6.00
2018-04-07T08:55:57.900Z,5.90
2018-04-07T08:56:57.704Z,6.00
2018-04-07T08:57:57.616Z,5.90
2018-04-07T08:59:39.171Z,6.10
2018-04-07T09:00:40.055Z,5.90
2018-04-07T09:01:39.540Z,5.70
2018-04-07T09:02:39.566Z,6.30
2018-04-07T09:03:39.758Z,6.20
2018-04-07T09:04:39.874Z,6.00
2018-04-07T09:05:40.556Z,6.30
2018-04-07T09:06:39.206Z,6.00
2018-04-07T09:07:40.026Z,6.40
2018-04-07T09:08:39.682Z,6.80
2018-04-07T09:10:01.548Z,6.20
2018-04-07T09:11:01.622Z,6.30
2018-04-07T09:12:23.752Z,6.70
2018-04-07T09:13:24.412Z,6.80
2018-04-07T09:14:23.887Z,6.50
2018-04-07T09:15:44.488Z,7.30
2018-04-07T09:16:45.490Z,7.00
2018-04-07T09:18:06.792Z,7.10
2018-04-07T09:19:07.532Z,7.20
2018-04-07T09:20:07.463Z,6.80
2018-04-07T09:21:07.515Z,6.60
2018-04-07T09:22:07.468Z,6.40
2018-04-07T09:23:07.353Z,7.20
2018-04-07T09:24:07.390Z,6.30
2018-04-07T09:25:07.449Z,6.50
2018-04-07T09:26:06.900Z,6.30
2018-04-07T09:27:06.860Z,6.90
2018-04-07T09:28:06.954Z,6.50
2018-04-07T09:29:06.609Z,6.90
2018-04-07T09:30:30.839Z,7.00
2018-04-07T09:31:30.464Z,6.80
2018-04-07T09:32:31.241Z,7.00
2018-04-07T09:33:31.242Z,7.00
2018-04-07T09:34:31.076Z,7.60
2018-04-07T09:36:12.232Z,9.50
2018-04-07T09:37:13.270Z,7.10
2018-04-07T09:38:13.090Z,6.80
2018-04-07T09:39:34.626Z,7.10
2018-04-07T09:40:36.183Z,7.30
2018-04-07T09:41:34.980Z,6.40
2018-04-07T09:42:34.669Z,7.30
2018-04-07T09:43:35.573Z,7.60
2018-04-07T09:44:35.218Z,7.40
2018-04-07T09:45:56.800Z,7.50
2018-04-07T09:46:57.333Z,7.50
2018-04-07T09:47:56.927Z,7.80
2018-04-07T09:48:56.643Z,7.00
2018-04-07T09:49:57.314Z,7.20
2018-04-07T09:50:56.953Z,6.80
2018-04-07T09:51:56.898Z,7.30
2018-04-07T09:52:56.901Z,6.90
2018-04-07T09:53:56.819Z,6.90
2018-04-07T09:54:56.567Z,7.20
2018-04-07T09:55:57.273Z,7.40
2018-04-07T09:56:56.988Z,7.00
2018-04-07T09:57:57.067Z,7.80
2018-04-07T09:59:18.145Z,6.70
2018-04-07T10:00:17.841Z,7.40
2018-04-07T10:01:40.142Z,7.40
2018-04-07T10:02:40.205Z,7.00
2018-04-07T10:03:40.705Z,7.40
2018-04-07T10:04:40.289Z,7.20
2018-04-07T10:05:40.450Z,7.00
2018-04-07T10:06:40.503Z,7.20
2018-04-07T10:07:40.507Z,7.20
2018-04-07T10:08:40.078Z,7.10
2018-04-07T10:09:40.745Z,7.40
2018-04-07T10:10:40.443Z,8.10
2018-04-07T10:11:40.312Z,7.80
2018-04-07T10:12:40.294Z,8.10
2018-04-07T10:13:39.919Z,7.60
2018-04-07T10:14:40.672Z,7.50
2018-04-07T10:16:02.738Z,8.10
2018-04-07T10:17:02.648Z,7.40
2018-04-07T10:18:02.667Z,7.50
2018-04-07T10:19:02.582Z,7.70
2018-04-07T10:20:02.423Z,7.50
2018-04-07T10:21:02.123Z,7.10
2018-04-07T10:22:03.107Z,7.40
2018-04-07T10:23:02.177Z,7.70
2018-04-07T10:24:23.867Z,7.50
2018-04-07T10:25:24.556Z,7.40
2018-04-07T10:26:24.779Z,8.00
2018-04-07T10:27:24.590Z,7.50
2018-04-07T10:28:24.505Z,7.30
2018-04-07T10:29:24.159Z,7.80
2018-04-07T10:30:24.509Z,7.70
2018-04-07T10:31:24.526Z,7.50
2018-04-07T10:32:24.632Z,7.70
2018-04-07T10:33:24.428Z,7.90
2018-04-07T10:34:24.387Z,8.50
2018-04-07T10:35:24.366Z,8.30
2018-04-07T10:36:23.875Z,8.10
2018-04-07T10:37:48.018Z,0.00
2018-04-07T10:38:48.787Z,7.70
2018-04-07T10:39:49.482Z,7.70
2018-04-07T10:40:48.451Z,8.00
2018-04-07T10:41:48.026Z,7.40
2018-04-07T10:43:10.088Z,8.30
2018-04-07T10:44:31.130Z,7.50
2018-04-07T10:45:31.880Z,7.80
2018-04-07T10:46:31.872Z,7.80
2018-04-07T10:47:31.797Z,7.60
2018-04-07T10:48:31.548Z,7.40
2018-04-07T10:49:31.440Z,8.20
2018-04-07T10:50:31.062Z,8.20
2018-04-07T10:51:31.628Z,8.10
2018-04-07T10:52:31.234Z,7.60
2018-04-07T10:53:31.241Z,8.10
2018-04-07T10:54:31.407Z,8.10
2018-04-07T10:55:31.496Z,8.30
2018-04-07T10:56:32.208Z,7.80
2018-04-07T10:57:31.480Z,8.70
2018-04-07T10:58:31.675Z,7.50
2018-04-07T10:59:31.509Z,7.90
2018-04-07T11:00:31.703Z,7.50
2018-04-07T11:01:31.538Z,8.40
2018-04-07T11:02:31.550Z,8.60
2018-04-07T11:03:52.857Z,8.50
2018-04-07T11:04:53.980Z,7.90
2018-04-07T11:05:54.077Z,7.60
2018-04-07T11:06:54.032Z,7.90
2018-04-07T11:07:53.805Z,8.40
2018-04-07T11:08:53.591Z,8.30
2018-04-07T11:09:53.571Z,8.00
2018-04-07T11:10:53.816Z,8.20
2018-04-07T11:11:53.656Z,7.80
2018-04-07T11:12:53.748Z,8.00
2018-04-07T11:13:53.497Z,7.80
2018-04-07T11:14:53.575Z,7.80
2018-04-07T11:15:53.441Z,7.20
2018-04-07T11:16:53.624Z,8.20
2018-04-07T11:18:14.644Z,7.80
2018-04-07T11:19:16.948Z,8.10
2018-04-07T11:20:15.757Z,7.40
2018-04-07T11:21:18.556Z,7.50
2018-04-07T11:22:15.891Z,7.80
2018-04-07T11:23:15.513Z,7.70
2018-04-07T11:24:15.615Z,7.50
2018-04-07T11:25:15.369Z,8.20
2018-04-07T11:26:15.288Z,7.80
2018-04-07T11:27:14.923Z,7.80
2018-04-07T11:28:15.876Z,8.20
2018-04-07T11:29:36.380Z,7.90
2018-04-07T11:30:37.431Z,7.90
2018-04-07T11:31:37.138Z,8.00
2018-04-07T11:32:37.215Z,7.30
2018-04-07T11:33:36.966Z,7.70
2018-04-07T11:34:36.849Z,7.80
2018-04-07T11:35:36.930Z,8.50
2018-04-07T11:36:58.149Z,7.70
2018-04-07T11:37:57.879Z,8.00
2018-04-07T11:38:58.871Z,7.70
2018-04-07T11:40:40.256Z,8.00
2018-04-07T11:42:03.281Z,7.00
2018-04-07T11:43:04.015Z,7.30
2018-04-07T11:44:03.608Z,7.60
2018-04-07T11:45:04.515Z,8.30
2018-04-07T11:46:04.164Z,7.80
2018-04-07T11:47:04.372Z,7.70
2018-04-07T11:48:04.674Z,7.50
2018-04-07T11:49:04.313Z,8.50
2018-04-07T11:50:04.186Z,7.60
2018-04-07T11:51:03.874Z,7.70
2018-04-07T11:52:03.879Z,8.50
2018-04-07T11:53:03.530Z,7.80
2018-04-07T11:54:04.236Z,8.00
2018-04-07T11:55:04.308Z,7.30
2018-04-07T11:56:04.076Z,7.50
2018-04-07T11:57:04.027Z,7.10
2018-04-07T11:58:04.083Z,7.20
2018-04-07T11:59:03.853Z,7.70
2018-04-07T12:00:03.839Z,7.80
2018-04-07T12:01:25.031Z,7.80
2018-04-07T12:02:24.594Z,7.40
2018-04-07T12:03:25.454Z,7.70
2018-04-07T12:04:25.552Z,7.70
2018-04-07T12:05:25.629Z,8.00
2018-04-07T12:06:25.573Z,7.50
2018-04-07T12:07:46.553Z,7.70
2018-04-07T12:08:47.614Z,7.70
2018-04-07T12:09:47.222Z,7.90
2018-04-07T12:11:07.620Z,8.10
2018-04-07T12:12:08.321Z,7.30
2018-04-07T12:13:07.913Z,7.80
2018-04-07T12:14:08.665Z,7.50
2018-04-07T12:15:08.232Z,8.00
2018-04-07T12:16:08.225Z,8.40
2018-04-07T12:17:08.469Z,8.70
2018-04-07T12:18:08.107Z,8.10
2018-04-07T12:19:08.772Z,7.20
2018-04-07T12:20:08.553Z,7.70
2018-04-07T12:21:08.416Z,7.30
2018-04-07T12:22:08.222Z,7.40
2018-04-07T12:23:09.928Z,7.40
2018-04-07T12:24:08.195Z,7.50
2018-04-07T12:25:08.476Z,8.10
2018-04-07T12:26:30.113Z,8.50
2018-04-07T12:27:30.339Z,7.60
2018-04-07T12:28:30.282Z,7.60
2018-04-07T12:29:30.158Z,7.60
2018-04-07T12:30:30.320Z,8.10
2018-04-07T12:31:30.391Z,7.80
2018-04-07T12:32:50.852Z,7.60
2018-04-07T12:34:11.706Z,7.10
2018-04-07T12:35:11.791Z,7.60
2018-04-07T12:36:33.572Z,7.30
2018-04-07T12:37:34.649Z,7.80
2018-04-07T12:38:34.630Z,7.50
2018-04-07T12:39:34.469Z,7.60
2018-04-07T12:40:34.624Z,7.50
2018-04-07T12:41:34.473Z,7.50
2018-04-07T12:42:34.186Z,7.70
2018-04-07T12:43:34.292Z,7.80
2018-04-07T12:44:55.984Z,7.50
2018-04-07T12:45:56.576Z,6.70
2018-04-07T12:46:56.392Z,7.70
2018-04-07T12:48:17.547Z,8.10
2018-04-07T12:49:18.339Z,7.90
2018-04-07T12:50:18.179Z,7.90
2018-04-07T12:51:17.760Z,8.20
2018-04-07T12:52:18.038Z,8.40
2018-04-07T12:53:18.530Z,7.20
2018-04-07T12:54:18.195Z,7.60
2018-04-07T12:55:18.164Z,7.90
2018-04-07T12:56:17.988Z,7.80
2018-04-07T12:57:38.531Z,7.10
2018-04-07T12:58:39.245Z,7.30
2018-04-07T12:59:39.192Z,7.20
2018-04-07T13:00:39.251Z,7.30
2018-04-07T13:01:39.207Z,7.20
2018-04-07T13:02:39.348Z,7.30
2018-04-07T13:03:39.129Z,8.00
2018-04-07T13:04:39.291Z,7.30
2018-04-07T13:05:39.450Z,7.30
2018-04-07T13:06:39.224Z,6.80
2018-04-07T13:07:39.446Z,6.90
2018-04-07T13:08:39.193Z,6.90
2018-04-07T13:10:00.515Z,6.90
2018-04-07T13:11:01.266Z,7.20
2018-04-07T13:12:01.271Z,7.00
2018-04-07T13:14:03.407Z,7.90
2018-04-07T13:15:25.457Z,7.40
2018-04-07T13:16:26.641Z,6.80
2018-04-07T13:17:25.428Z,6.40
2018-04-07T13:18:26.444Z,6.50
2018-04-07T13:19:26.284Z,6.10
2018-04-07T13:20:48.004Z,6.60
2018-04-07T13:21:48.006Z,6.80
2018-04-07T13:23:10.077Z,7.10
2018-04-07T13:24:10.738Z,6.90
2018-04-07T13:25:10.418Z,6.50
2018-04-07T13:26:31.990Z,6.40
2018-04-07T13:27:32.827Z,6.80
2018-04-07T13:28:32.941Z,6.40
2018-04-07T13:29:53.484Z,6.10
2018-04-07T13:30:54.725Z,6.10
2018-04-07T13:31:54.361Z,6.20
2018-04-07T13:32:54.470Z,6.20
2018-04-07T13:34:15.581Z,6.70
2018-04-07T13:35:17.021Z,6.10
2018-04-07T13:36:15.978Z,6.60
2018-04-07T13:37:37.757Z,6.20
2018-04-07T13:38:38.703Z,6.40
2018-04-07T13:39:38.479Z,6.50
2018-04-07T13:40:59.862Z,7.00
2018-04-07T13:42:00.498Z,6.90
2018-04-07T13:43:00.466Z,6.10
2018-04-07T13:44:00.349Z,6.50
2018-04-07T13:45:00.112Z,6.40
2018-04-07T13:46:23.111Z,6.00
2018-04-07T13:47:22.747Z,6.90
2018-04-07T13:48:44.564Z,7.10
2018-04-07T13:50:07.017Z,6.30
2018-04-07T13:51:06.853Z,6.80
2018-04-07T13:52:08.002Z,6.40
2018-04-07T13:53:06.761Z,6.50
2018-04-07T13:54:07.776Z,7.80
2018-04-07T13:55:07.587Z,6.60
2018-04-07T13:56:29.253Z,6.80
2018-04-07T13:57:29.296Z,7.00
2018-04-07T13:58:28.996Z,7.80
2018-04-07T13:59:29.558Z,6.10
2018-04-07T14:00:29.224Z,6.20
2018-04-07T14:01:29.340Z,6.70
2018-04-07T14:02:29.652Z,6.40
2018-04-07T14:03:29.746Z,6.20
2018-04-07T14:04:29.552Z,6.00
2018-04-07T14:05:29.294Z,6.00
2018-04-07T14:06:31.175Z,6.20
2018-04-07T14:07:30.159Z,6.50
2018-04-07T14:08:53.169Z,6.20
2018-04-07T14:09:55.796Z,6.00
2018-04-07T14:10:52.997Z,6.20
2018-04-07T14:11:53.463Z,6.20
2018-04-07T14:12:53.103Z,5.90
2018-04-07T14:13:52.124Z,6.30
2018-04-07T14:14:52.350Z,5.70
2018-04-07T14:15:52.581Z,6.10
2018-04-07T14:16:53.148Z,6.30
2018-04-07T14:17:53.055Z,5.40
2018-04-07T14:18:52.671Z,5.60
2018-04-07T14:19:52.826Z,6.10
2018-04-07T14:20:53.595Z,6.50
2018-04-07T14:22:17.409Z,6.60
2018-04-07T14:23:19.930Z,6.20
2018-04-07T14:24:16.793Z,6.10
2018-04-07T14:25:16.916Z,7.40
2018-04-07T14:26:16.999Z,7.20
2018-04-07T14:27:16.873Z,7.00
2018-04-07T14:28:16.706Z,6.50
2018-04-07T14:29:16.577Z,6.40
2018-04-07T14:30:16.602Z,7.10
2018-04-07T14:31:16.550Z,6.40
2018-04-07T14:32:38.349Z,6.60
2018-04-07T14:33:59.749Z,6.80
2018-04-07T14:35:00.202Z,6.60
2018-04-07T14:36:00.017Z,6.70
2018-04-07T14:37:01.064Z,6.50
2018-04-07T14:37:59.793Z,6.90
2018-04-07T14:39:22.138Z,7.40
2018-04-07T14:40:22.002Z,6.70
2018-04-07T14:41:23.117Z,6.30
2018-04-07T14:42:21.961Z,7.10
2018-04-07T14:43:44.869Z,7.00
2018-04-07T14:44:44.738Z,7.10
2018-04-07T14:45:45.615Z,6.50
2018-04-07T14:47:07.053Z,6.50
2018-04-07T14:48:06.984Z,6.40
2018-04-07T14:49:08.124Z,6.90
2018-04-07T14:50:08.111Z,7.00
2018-04-07T14:51:48.429Z,6.60
2018-04-07T14:52:49.499Z,6.50
2018-04-07T14:53:49.526Z,6.70
2018-04-07T14:54:49.517Z,6.70
2018-04-07T14:55:49.249Z,6.30
2018-04-07T14:56:49.199Z,6.60
2018-04-07T14:57:49.117Z,6.60
2018-04-07T14:58:48.897Z,6.80
2018-04-07T14:59:48.569Z,7.00
2018-04-07T15:00:54.708Z,7.40
2018-04-07T15:01:51.644Z,7.60
2018-04-07T15:03:08.947Z,6.80
2018-04-07T15:04:08.977Z,6.90
2018-04-07T15:05:09.007Z,7.60
2018-04-07T15:06:09.232Z,7.00
2018-04-07T15:07:08.182Z,7.50
2018-04-07T15:08:29.074Z,6.70
2018-04-07T15:09:28.931Z,6.90
2018-04-07T15:10:29.679Z,7.80
2018-04-07T15:11:29.713Z,6.70
2018-04-07T15:12:29.725Z,6.90
2018-04-07T15:13:29.521Z,7.10
2018-04-07T15:14:29.512Z,6.50
2018-04-07T15:15:29.352Z,7.90
2018-04-07T15:16:54.251Z,7.10
2018-04-07T15:18:36.136Z,7.10
2018-04-07T15:19:35.893Z,7.30
2018-04-07T15:20:36.708Z,7.10
2018-04-07T15:21:37.100Z,7.00
2018-04-07T15:22:36.895Z,7.20
2018-04-07T15:23:36.740Z,7.60
2018-04-07T15:24:36.451Z,7.60
2018-04-07T15:25:36.298Z,7.50
2018-04-07T15:26:36.340Z,6.50
2018-04-07T15:27:36.380Z,7.50
2018-04-07T15:28:36.196Z,7.30
2018-04-07T15:29:35.885Z,7.10
2018-04-07T15:30:36.721Z,7.00
2018-04-07T15:31:36.683Z,6.70
2018-04-07T15:32:37.572Z,6.90
2018-04-07T15:33:36.380Z,6.80
2018-04-07T15:34:35.934Z,7.20
2018-04-07T15:35:36.101Z,6.70
2018-04-07T15:36:36.116Z,7.70
2018-04-07T15:37:36.996Z,6.70
2018-04-07T15:38:37.580Z,6.90
2018-04-07T15:39:36.850Z,7.10
2018-04-07T15:40:36.629Z,7.00
2018-04-07T15:41:37.109Z,8.00
2018-04-07T15:42:35.919Z,6.50
2018-04-07T15:43:37.299Z,6.60
2018-04-07T15:44:36.008Z,6.60
2018-04-07T15:45:36.754Z,7.00
2018-04-07T15:46:36.830Z,6.40
2018-04-07T15:47:36.708Z,6.70
2018-04-07T15:48:37.044Z,7.10
2018-04-07T15:49:36.637Z,6.10
2018-04-07T15:50:36.443Z,6.90